createdAt,value
2023-02-27T00:02:06.125Z,-1.30
2023-02-27T00:04:33.248Z,-1.30
2023-02-27T00:07:00.318Z,-1.40
2023-02-27T00:09:27.353Z,-1.40
2023-02-27T00:11:54.418Z,-1.40
2023-02-27T00:14:22.361Z,-1.50
2023-02-27T00:16:49.582Z,-1.50
2023-02-27T00:19:16.643Z,-1.50
2023-02-27T00:21:44.617Z,-1.50
2023-02-27T00:24:11.793Z,-1.50
2023-02-27T00:26:39.013Z,-1.50
2023-02-27T00:29:06.416Z,-1.50
2023-02-27T00:31:34.582Z,-1.60
2023-02-27T00:34:01.745Z,-1.60
2023-02-27T00:36:28.857Z,-1.60
2023-02-27T00:38:58.047Z,-1.50
2023-02-27T00:41:26.363Z,-1.50
2023-02-27T00:43:53.571Z,-1.50
2023-02-27T00:46:20.739Z,-1.50
2023-02-27T00:48:47.869Z,-1.50
2023-02-27T00:51:15.041Z,-1.50
2023-02-27T00:53:42.176Z,-1.50
2023-02-27T00:56:09.278Z,-1.60
2023-02-27T00:58:36.379Z,-1.60
2023-02-27T01:01:03.499Z,-1.60
2023-02-27T01:03:30.939Z,-1.60
2023-02-27T01:05:58.571Z,-1.60
2023-02-27T01:08:25.717Z,-1.60
2023-02-27T01:10:54.081Z,-1.60
2023-02-27T01:13:21.277Z,-1.60
2023-02-27T01:15:48.406Z,-1.60
2023-02-27T01:18:15.500Z,-1.60
2023-02-27T01:20:43.567Z,-1.60
2023-02-27T01:23:13.474Z,-1.60
2023-02-27T01:25:40.622Z,-1.60
2023-02-27T01:28:07.726Z,-1.60
2023-02-27T01:30:36.824Z,-1.60
2023-02-27T01:33:04.021Z,-1.60
2023-02-27T01:35:31.651Z,-1.60
2023-02-27T01:37:58.743Z,-1.60
2023-02-27T01:40:26.126Z,-1.60
2023-02-27T01:42:53.327Z,-1.60
2023-02-27T01:45:25.066Z,-1.60
2023-02-27T01:47:54.217Z,-1.60
2023-02-27T01:50:21.400Z,-1.60
2023-02-27T01:52:49.967Z,-1.60
2023-02-27T01:55:17.043Z,-1.60
2023-02-27T01:57:44.486Z,-1.60
2023-02-27T02:00:11.823Z,-1.50
2023-02-27T02:02:42.790Z,-1.50
2023-02-27T02:05:10.069Z,-1.50
2023-02-27T02:07:38.471Z,-1.50
2023-02-27T02:10:05.710Z,-1.50
2023-02-27T02:12:35.378Z,-1.50
2023-02-27T02:15:02.656Z,-1.50
2023-02-27T02:17:45.503Z,-1.50
2023-02-27T02:20:28.028Z,-1.50
2023-02-27T02:23:16.256Z,-1.60
2023-02-27T02:25:46.493Z,-1.50
2023-02-27T02:28:29.764Z,-1.60
2023-02-27T02:31:01.619Z,-1.60
2023-02-27T02:33:47.649Z,-1.60
2023-02-27T02:36:33.147Z,-1.60
2023-02-27T02:39:21.494Z,-1.60
2023-02-27T02:42:00.854Z,-1.60
2023-02-27T02:44:34.039Z,-1.60
2023-02-27T02:47:20.965Z,-1.60
2023-02-27T02:49:48.092Z,-1.60
2023-02-27T02:52:41.565Z,-1.60
2023-02-27T02:55:10.335Z,-1.60
2023-02-27T02:57:37.459Z,-1.60
2023-02-27T03:00:10.049Z,-1.60
2023-02-27T03:02:42.579Z,-1.60
2023-02-27T03:05:10.616Z,-1.70
2023-02-27T03:07:56.438Z,-1.70
2023-02-27T03:10:30.556Z,-1.70
2023-02-27T03:13:34.237Z,-1.70
2023-02-27T03:16:02.738Z,-1.70
2023-02-27T03:18:35.013Z,-1.70
2023-02-27T03:21:08.202Z,-1.70
2023-02-27T03:23:36.361Z,-1.70
2023-02-27T03:26:04.809Z,-1.70
2023-02-27T03:28:32.653Z,-1.70
2023-02-27T03:31:09.968Z,-1.70
2023-02-27T03:33:48.917Z,-1.80
2023-02-27T03:36:19.125Z,-1.80
2023-02-27T03:38:51.768Z,-1.80
2023-02-27T03:41:29.583Z,-1.80
2023-02-27T03:44:19.030Z,-1.80
2023-02-27T03:46:46.174Z,-1.80
2023-02-27T03:49:13.311Z,-1.80
2023-02-27T03:51:40.385Z,-1.70
2023-02-27T03:54:07.460Z,-1.70
2023-02-27T03:56:55.884Z,-1.70
2023-02-27T03:59:26.157Z,-1.80
2023-02-27T04:01:54.838Z,-1.80
2023-02-27T04:04:22.017Z,-1.80
2023-02-27T04:07:25.108Z,-1.80
2023-02-27T04:09:58.951Z,-1.80
2023-02-27T04:12:37.296Z,-1.70
2023-02-27T04:15:16.041Z,-1.70
2023-02-27T04:17:46.677Z,-1.70
2023-02-27T04:20:16.948Z,-1.70
2023-02-27T04:22:48.060Z,-1.70
2023-02-27T04:25:15.145Z,-1.70
2023-02-27T04:27:58.241Z,-1.70
2023-02-27T04:30:44.291Z,-1.70
2023-02-27T04:33:33.642Z,-1.70
2023-02-27T04:36:03.650Z,-1.70
2023-02-27T04:38:33.409Z,-1.70
2023-02-27T04:41:13.100Z,-1.70
2023-02-27T04:43:40.812Z,-1.60
2023-02-27T04:46:08.838Z,-1.70
2023-02-27T04:48:43.903Z,-1.70
2023-02-27T04:51:12.401Z,-1.70
2023-02-27T04:53:48.154Z,-1.70
2023-02-27T04:56:20.853Z,-1.70
2023-02-27T04:58:52.761Z,-1.70
2023-02-27T05:01:22.377Z,-1.70
2023-02-27T05:03:53.398Z,-1.70
2023-02-27T05:06:22.060Z,-1.70
2023-02-27T05:09:07.998Z,-1.70
2023-02-27T05:11:38.330Z,-1.70
2023-02-27T05:14:11.840Z,-1.70
2023-02-27T05:16:40.644Z,-1.70
2023-02-27T05:19:07.731Z,-1.70
2023-02-27T05:21:40.913Z,-1.70
2023-02-27T05:24:26.797Z,-1.70
2023-02-27T05:26:56.097Z,-1.80
2023-02-27T05:29:38.430Z,-1.70
2023-02-27T05:32:07.763Z,-1.80
2023-02-27T05:34:34.894Z,-1.80
2023-02-27T05:37:03.260Z,-1.80
2023-02-27T05:39:30.354Z,-1.80
2023-02-27T05:42:01.274Z,-1.80
2023-02-27T05:44:33.356Z,-1.80
2023-02-27T05:47:00.958Z,-1.80
2023-02-27T05:49:31.906Z,-1.80
2023-02-27T05:52:01.880Z,-1.80
2023-02-27T05:54:42.451Z,-1.80
2023-02-27T05:57:10.728Z,-1.80
2023-02-27T05:59:39.194Z,-1.80
2023-02-27T06:02:06.337Z,-1.80
2023-02-27T06:04:33.592Z,-1.80
2023-02-27T06:07:00.724Z,-1.80
2023-02-27T06:09:28.963Z,-1.80
2023-02-27T06:11:56.058Z,-1.80
2023-02-27T06:14:23.090Z,-1.80
2023-02-27T06:16:50.186Z,-1.80
2023-02-27T06:19:17.291Z,-1.80
2023-02-27T06:21:44.405Z,-1.80
2023-02-27T06:24:11.448Z,-1.80
2023-02-27T06:26:38.576Z,-1.80
2023-02-27T06:29:05.644Z,-1.80
2023-02-27T06:31:32.859Z,-1.80
2023-02-27T06:34:00.028Z,-1.80
2023-02-27T06:36:29.542Z,-1.80
2023-02-27T06:38:57.952Z,-1.70
2023-02-27T06:41:24.986Z,-1.70
2023-02-27T06:43:52.879Z,-1.70
2023-02-27T06:46:20.162Z,-1.70
2023-02-27T06:48:47.321Z,-1.70
2023-02-27T06:51:14.542Z,-1.60
2023-02-27T06:53:41.777Z,-1.60
2023-02-27T06:56:09.930Z,-1.60
2023-02-27T06:58:37.016Z,-1.50
2023-02-27T07:01:04.474Z,-1.50
2023-02-27T07:03:31.707Z,-1.50
2023-02-27T07:05:59.064Z,-1.40
2023-02-27T07:08:26.362Z,-1.40
2023-02-27T07:10:53.500Z,-1.40
2023-02-27T07:13:20.604Z,-1.40
2023-02-27T07:15:47.948Z,-1.40
2023-02-27T07:18:15.199Z,-1.40
2023-02-27T07:20:43.332Z,-1.30
2023-02-27T07:23:10.706Z,-1.30
2023-02-27T07:25:37.999Z,-1.30
2023-02-27T07:28:05.242Z,-1.30
2023-02-27T07:30:33.505Z,-1.30
2023-02-27T07:33:00.592Z,-1.30
2023-02-27T07:35:28.208Z,-1.20
2023-02-27T07:37:55.422Z,-1.20
2023-02-27T07:40:22.521Z,-1.20
2023-02-27T07:42:52.684Z,-1.10
2023-02-27T07:45:20.283Z,-1.10
2023-02-27T07:47:48.169Z,-1.10
2023-02-27T07:50:15.419Z,-1.00
2023-02-27T07:52:43.740Z,-1.00
2023-02-27T07:55:10.968Z,-1.00
2023-02-27T07:57:40.044Z,-0.90
2023-02-27T08:00:07.575Z,-0.90
2023-02-27T08:02:38.949Z,-0.90
2023-02-27T08:05:06.372Z,-0.90
2023-02-27T08:07:34.582Z,-0.80
2023-02-27T08:10:01.636Z,-0.80
2023-02-27T08:12:28.755Z,-0.80
2023-02-27T08:14:55.804Z,-0.70
2023-02-27T08:17:36.155Z,-0.70
2023-02-27T08:20:04.919Z,-0.70
2023-02-27T08:22:32.492Z,-0.70
2023-02-27T08:25:00.454Z,-0.70
2023-02-27T08:27:32.749Z,-0.70
2023-02-27T08:29:59.919Z,-0.70
2023-02-27T08:32:32.016Z,-0.60
2023-02-27T08:34:59.287Z,-0.60
2023-02-27T08:37:26.361Z,-0.60
2023-02-27T08:39:53.485Z,-0.50
2023-02-27T08:42:20.625Z,-0.50
2023-02-27T08:44:50.260Z,-0.40
2023-02-27T08:47:17.686Z,-0.40
2023-02-27T08:49:44.815Z,-0.40
2023-02-27T08:52:11.992Z,-0.40
2023-02-27T08:54:43.049Z,-0.40
2023-02-27T08:57:10.243Z,-0.40
2023-02-27T08:59:37.542Z,-0.40
2023-02-27T09:02:04.751Z,-0.40
2023-02-27T09:04:31.998Z,-0.40
2023-02-27T09:06:59.097Z,-0.40
2023-02-27T09:09:27.352Z,-0.30
2023-02-27T09:11:54.472Z,-0.30
2023-02-27T09:14:21.656Z,-0.20
2023-02-27T09:16:48.788Z,-0.20
2023-02-27T09:19:15.927Z,-0.20
2023-02-27T09:21:43.133Z,-0.30
2023-02-27T09:24:19.836Z,-0.30
2023-02-27T09:26:47.789Z,-0.30
2023-02-27T09:29:21.266Z,-0.30
2023-02-27T09:31:48.591Z,-0.30
2023-02-27T09:34:15.906Z,-0.30
2023-02-27T09:36:43.006Z,-0.30
2023-02-27T09:39:10.125Z,-0.30
2023-02-27T09:41:50.725Z,-0.30
2023-02-27T09:44:30.665Z,-0.30
2023-02-27T09:47:04.777Z,-0.40
2023-02-27T09:50:01.343Z,-0.40
2023-02-27T09:52:31.760Z,-0.50
2023-02-27T09:54:59.068Z,-0.60
2023-02-27T09:57:49.822Z,-0.70
2023-02-27T10:00:35.930Z,-0.60
2023-02-27T10:03:38.710Z,-0.60
2023-02-27T10:06:07.234Z,-0.60
2023-02-27T10:08:35.871Z,-0.50
2023-02-27T10:14:47.780Z,-0.30
2023-02-27T10:17:22.587Z,-0.20
2023-02-27T10:19:49.664Z,-0.20
2023-02-27T10:22:19.775Z,-0.10
2023-02-27T10:24:51.885Z,-0.10
2023-02-27T10:27:22.003Z,-0.10
2023-02-27T10:29:49.154Z,-0.20
2023-02-27T10:32:39.938Z,-0.20
2023-02-27T10:35:25.820Z,-0.20
2023-02-27T10:37:54.999Z,-0.10
2023-02-27T10:40:24.942Z,-0.10
2023-02-27T10:42:52.116Z,0.00
2023-02-27T10:45:19.258Z,-0.10
2023-02-27T10:47:46.406Z,0.00
2023-02-27T10:50:21.623Z,0.10
2023-02-27T10:52:52.805Z,0.10
2023-02-27T10:55:22.871Z,0.20
2023-02-27T10:57:49.974Z,0.20
2023-02-27T11:00:40.063Z,0.20
2023-02-27T11:03:07.168Z,0.20
2023-02-27T11:05:57.059Z,0.20
2023-02-27T11:08:30.752Z,0.20
2023-02-27T11:11:01.980Z,0.30
2023-02-27T11:13:30.879Z,0.30
2023-02-27T11:16:13.412Z,0.30
2023-02-27T11:18:41.406Z,0.30
2023-02-27T11:21:11.576Z,0.30
2023-02-27T11:23:38.712Z,0.30
2023-02-27T11:26:10.225Z,0.30
2023-02-27T11:28:37.403Z,0.30
2023-02-27T11:31:06.038Z,0.30
2023-02-27T11:33:38.429Z,0.30
2023-02-27T11:36:05.810Z,0.20
2023-02-27T11:38:34.107Z,0.30
2023-02-27T11:41:02.109Z,0.30
2023-02-27T11:43:41.699Z,0.30
2023-02-27T11:46:46.469Z,0.30
2023-02-27T11:49:02.800Z,0.30
2023-02-27T11:51:32.815Z,0.30
2023-02-27T11:54:21.766Z,0.40
2023-02-27T11:56:50.676Z,0.40
2023-02-27T11:59:23.001Z,0.40
2023-02-27T12:01:55.156Z,0.40
2023-02-27T12:04:41.404Z,0.40
2023-02-27T12:07:15.229Z,0.40
2023-02-27T12:09:46.098Z,0.40
2023-02-27T12:12:23.902Z,0.40
2023-02-27T12:14:59.466Z,0.50
2023-02-27T12:17:29.413Z,0.40
2023-02-27T12:20:16.228Z,0.40
2023-02-27T12:22:45.810Z,0.40
2023-02-27T12:25:59.414Z,0.40
2023-02-27T12:29:00.654Z,0.30
2023-02-27T12:31:37.021Z,0.20
2023-02-27T12:34:05.629Z,0.20
2023-02-27T12:36:33.179Z,0.20
2023-02-27T12:39:00.325Z,0.10
2023-02-27T12:41:31.637Z,0.00
2023-02-27T12:44:07.804Z,0.00
2023-02-27T12:46:42.066Z,0.00
2023-02-27T12:49:29.887Z,0.10
2023-02-27T12:52:12.621Z,0.10
2023-02-27T12:54:47.573Z,0.20
2023-02-27T12:57:20.777Z,0.20
2023-02-27T13:00:00.009Z,0.20
2023-02-27T13:02:34.156Z,0.20
2023-02-27T13:05:22.555Z,0.30
2023-02-27T13:07:58.980Z,0.30
2023-02-27T13:10:41.346Z,0.30
2023-02-27T13:13:12.335Z,0.30
2023-02-27T13:15:44.467Z,0.30
2023-02-27T13:18:28.165Z,0.30
2023-02-27T13:21:09.974Z,0.40
2023-02-27T13:23:48.397Z,0.40
2023-02-27T13:26:18.880Z,0.40
2023-02-27T13:28:46.102Z,0.40
2023-02-27T13:31:16.298Z,0.50
2023-02-27T13:33:48.624Z,0.50
2023-02-27T13:36:16.806Z,0.60
2023-02-27T13:38:49.108Z,0.60
2023-02-27T13:41:35.530Z,0.70
2023-02-27T13:44:21.908Z,0.60
2023-02-27T13:46:49.010Z,0.50
2023-02-27T13:49:28.904Z,0.40
2023-02-27T13:51:59.274Z,0.40
2023-02-27T13:54:33.373Z,0.40
2023-02-27T13:57:03.589Z,0.40
2023-02-27T13:59:31.631Z,0.40
2023-02-27T14:02:11.087Z,0.40
2023-02-27T14:04:50.617Z,0.30
2023-02-27T14:07:19.044Z,0.40
2023-02-27T14:10:24.191Z,0.40
2023-02-27T14:12:51.368Z,0.40
2023-02-27T14:15:19.529Z,0.40
2023-02-27T14:17:46.813Z,0.40
2023-02-27T14:20:14.885Z,0.30
2023-02-27T14:23:00.968Z,0.30
2023-02-27T14:25:32.684Z,0.20
2023-02-27T14:28:27.773Z,0.20
2023-02-27T14:31:02.037Z,0.10
2023-02-27T14:33:55.698Z,0.10
2023-02-27T14:36:53.826Z,0.10
2023-02-27T14:39:23.470Z,0.10
2023-02-27T14:41:53.794Z,0.10
2023-02-27T14:44:23.889Z,0.10
2023-02-27T14:46:51.250Z,0.00
2023-02-27T14:49:31.881Z,0.00
2023-02-27T14:52:17.657Z,0.00
2023-02-27T14:55:17.966Z,0.00
2023-02-27T14:58:02.437Z,0.00
2023-02-27T15:00:43.166Z,0.00
2023-02-27T15:03:11.862Z,-0.10
2023-02-27T15:05:39.037Z,-0.10
2023-02-27T15:08:06.155Z,-0.20
2023-02-27T15:10:33.402Z,-0.20
2023-02-27T15:13:00.645Z,-0.20
2023-02-27T15:15:27.759Z,-0.20
2023-02-27T15:17:54.980Z,-0.20
2023-02-27T15:20:23.030Z,-0.20
2023-02-27T15:22:50.315Z,-0.20
2023-02-27T15:25:47.821Z,-0.20
2023-02-27T15:28:21.759Z,-0.20
2023-02-27T15:30:52.441Z,-0.20
2023-02-27T15:33:21.792Z,-0.20
2023-02-27T15:35:48.925Z,-0.20
2023-02-27T15:38:29.433Z,-0.20
2023-02-27T15:40:57.121Z,-0.20
2023-02-27T15:43:24.907Z,-0.20
2023-02-27T15:45:52.715Z,-0.10
2023-02-27T15:48:19.793Z,-0.10
2023-02-27T15:51:40.481Z,-0.10
2023-02-27T15:54:11.733Z,-0.10
2023-02-27T15:57:03.752Z,-0.10
2023-02-27T15:59:32.238Z,-0.10
2023-02-27T16:02:00.865Z,-0.20
2023-02-27T16:04:28.022Z,-0.20
2023-02-27T16:07:03.004Z,-0.20
2023-02-27T16:09:30.981Z,-0.20
2023-02-27T16:12:24.207Z,-0.20
2023-02-27T16:14:55.699Z,-0.20
2023-02-27T16:17:23.785Z,-0.20
2023-02-27T16:19:50.909Z,-0.30
2023-02-27T16:22:19.470Z,-0.30
2023-02-27T16:24:46.561Z,-0.30
2023-02-27T16:27:17.389Z,-0.30
2023-02-27T16:29:44.830Z,-0.30
2023-02-27T16:32:20.969Z,-0.30
2023-02-27T16:34:48.058Z,-0.30
2023-02-27T16:37:48.018Z,-0.40
2023-02-27T16:40:17.063Z,-0.40
2023-02-27T16:42:44.360Z,-0.40
2023-02-27T16:45:15.591Z,-0.40
2023-02-27T16:47:42.750Z,-0.40
2023-02-27T16:50:21.190Z,-0.40
2023-02-27T16:52:48.297Z,-0.50
2023-02-27T16:55:15.423Z,-0.50
2023-02-27T16:57:42.529Z,-0.50
2023-02-27T17:00:13.324Z,-0.50
2023-02-27T17:02:40.466Z,-0.50
2023-02-27T17:05:15.074Z,-0.50
2023-02-27T17:07:42.238Z,-0.50
2023-02-27T17:10:11.354Z,-0.50
2023-02-27T17:12:39.073Z,-0.50
2023-02-27T17:15:06.374Z,-0.50
2023-02-27T17:17:33.424Z,-0.50
2023-02-27T17:20:00.492Z,-0.50
2023-02-27T17:22:27.570Z,-0.50
2023-02-27T17:24:54.612Z,-0.50
2023-02-27T17:27:21.684Z,-0.50
2023-02-27T17:29:48.746Z,-0.50
2023-02-27T17:32:15.950Z,-0.60
2023-02-27T17:34:43.027Z,-0.60
2023-02-27T17:37:10.140Z,-0.60
2023-02-27T17:39:37.698Z,-0.60
2023-02-27T17:42:04.803Z,-0.60
2023-02-27T17:44:31.903Z,-0.60
2023-02-27T17:46:59.067Z,-0.60
2023-02-27T17:49:26.094Z,-0.60
2023-02-27T17:51:53.214Z,-0.70
2023-02-27T17:54:20.281Z,-0.70
2023-02-27T17:56:47.392Z,-0.70
2023-02-27T17:59:14.537Z,-0.70
2023-02-27T18:01:41.671Z,-0.70
2023-02-27T18:04:11.254Z,-0.70
2023-02-27T18:06:38.699Z,-0.80
2023-02-27T18:09:05.759Z,-0.80
2023-02-27T18:12:21.751Z,-0.80
2023-02-27T18:14:48.860Z,-0.90
2023-02-27T18:17:15.992Z,-0.90
2023-02-27T18:19:43.041Z,-1.00
2023-02-27T18:22:10.568Z,-1.00
2023-02-27T18:24:38.059Z,-1.00
2023-02-27T18:27:05.102Z,-1.00
2023-02-27T18:29:32.191Z,-1.10
2023-02-27T18:31:59.345Z,-1.10
2023-02-27T18:34:26.448Z,-1.10
2023-02-27T18:36:53.587Z,-1.10
2023-02-27T18:39:22.563Z,-1.10
2023-02-27T18:41:49.580Z,-1.00
2023-02-27T18:44:16.796Z,-1.10
2023-02-27T18:46:44.069Z,-1.10
2023-02-27T18:49:11.255Z,-1.20
2023-02-27T18:51:38.427Z,-1.20
2023-02-27T18:54:06.875Z,-1.10
2023-02-27T18:56:33.958Z,-1.20
2023-02-27T18:59:05.055Z,-1.20
2023-02-27T19:01:33.438Z,-1.30
2023-02-27T19:04:03.789Z,-1.30
2023-02-27T19:06:31.898Z,-1.30
2023-02-27T19:08:59.010Z,-1.40
2023-02-27T19:11:32.954Z,-1.40
2023-02-27T19:14:01.459Z,-1.50
2023-02-27T19:16:28.953Z,-1.40
2023-02-27T19:18:57.089Z,-1.50
2023-02-27T19:21:24.532Z,-1.50
2023-02-27T19:23:51.619Z,-1.50
2023-02-27T19:26:18.958Z,-1.50
2023-02-27T19:28:46.116Z,-1.50
2023-02-27T19:31:13.492Z,-1.60
2023-02-27T19:33:40.582Z,-1.60
2023-02-27T19:36:13.903Z,-1.60
2023-02-27T19:38:41.363Z,-1.60
2023-02-27T19:41:09.262Z,-1.60
2023-02-27T19:43:36.665Z,-1.60
2023-02-27T19:46:04.578Z,-1.60
2023-02-27T19:48:31.828Z,-1.60
2023-02-27T19:51:01.260Z,-1.50
2023-02-27T19:53:28.292Z,-1.60
2023-02-27T19:56:01.377Z,-1.60
2023-02-27T19:58:28.765Z,-1.60
2023-02-27T20:00:56.014Z,-1.60
2023-02-27T20:03:23.423Z,-1.60
2023-02-27T20:05:50.494Z,-1.60
2023-02-27T20:08:17.728Z,-1.60
2023-02-27T20:10:55.220Z,-1.60
2023-02-27T20:13:22.372Z,-1.50
2023-02-27T20:15:56.525Z,-1.60
2023-02-27T20:18:24.249Z,-1.60
2023-02-27T20:21:03.734Z,-1.60
2023-02-27T20:23:31.218Z,-1.60
2023-02-27T20:25:58.416Z,-1.50
2023-02-27T20:28:27.129Z,-1.50
2023-02-27T20:30:54.299Z,-1.50
2023-02-27T20:33:21.357Z,-1.50
2023-02-27T20:35:48.541Z,-1.50
2023-02-27T20:38:19.774Z,-1.50
2023-02-27T20:40:46.896Z,-1.50
2023-02-27T20:43:14.001Z,-1.50
2023-02-27T20:45:41.660Z,-1.50
2023-02-27T20:48:09.771Z,-1.50
2023-02-27T20:50:36.826Z,-1.50
2023-02-27T20:53:03.902Z,-1.50
2023-02-27T20:55:31.044Z,-1.50
2023-02-27T20:57:58.115Z,-1.50
2023-02-27T21:00:26.753Z,-1.50
2023-02-27T21:02:53.908Z,-1.50
2023-02-27T21:05:20.965Z,-1.50
2023-02-27T21:07:48.112Z,-1.50
2023-02-27T21:10:15.220Z,-1.50
2023-02-27T21:12:44.767Z,-1.50
2023-02-27T21:15:12.032Z,-1.50
2023-02-27T21:17:39.094Z,-1.50
2023-02-27T21:20:06.933Z,-1.50
2023-02-27T21:22:34.175Z,-1.60
2023-02-27T21:25:01.286Z,-1.50
2023-02-27T21:27:28.391Z,-1.50
2023-02-27T21:29:55.501Z,-1.60
2023-02-27T21:32:22.719Z,-1.60
2023-02-27T21:34:50.435Z,-1.60
2023-02-27T21:37:17.532Z,-1.60
2023-02-27T21:39:47.036Z,-1.60
2023-02-27T21:42:14.163Z,-1.60
2023-02-27T21:44:41.218Z,-1.60
2023-02-27T21:47:09.750Z,-1.60
2023-02-27T21:49:37.151Z,-1.70
2023-02-27T21:52:04.256Z,-1.60
2023-02-27T21:54:31.362Z,-1.60
2023-02-27T21:57:01.772Z,-1.60
2023-02-27T21:59:28.921Z,-1.60
2023-02-27T22:01:56.284Z,-1.50
2023-02-27T22:05:07.605Z,-1.60
2023-02-27T22:07:34.685Z,-1.50
2023-02-27T22:10:01.808Z,-1.50
2023-02-27T22:16:28.407Z,-1.50
2023-02-27T22:19:38.037Z,-1.50
2023-02-27T22:22:05.059Z,-1.50
2023-02-27T22:24:32.179Z,-1.50
2023-02-27T22:27:00.412Z,-1.60
2023-02-27T22:29:27.496Z,-1.60
2023-02-27T22:31:54.667Z,-1.60
2023-02-27T22:34:24.806Z,-1.60
2023-02-27T22:36:53.103Z,-1.60
2023-02-27T22:39:20.245Z,-1.60
2023-02-27T22:41:47.294Z,-1.60
2023-02-27T22:44:15.530Z,-1.60
2023-02-27T22:46:43.577Z,-1.60
2023-02-27T22:49:12.844Z,-1.60
2023-02-27T22:51:39.873Z,-1.60
2023-02-27T22:54:36.776Z,-1.70
2023-02-27T22:57:05.780Z,-1.70
2023-02-27T22:59:32.846Z,-1.70
2023-02-27T23:02:25.747Z,-1.70
2023-02-27T23:04:52.852Z,-1.70
2023-02-27T23:07:19.902Z,-1.70
2023-02-27T23:10:34.685Z,-1.70
2023-02-27T23:13:01.728Z,-1.70
2023-02-27T23:15:28.790Z,-1.70
2023-02-27T23:17:58.659Z,-1.80
2023-02-27T23:20:25.849Z,-1.80
2023-02-27T23:22:52.910Z,-1.80
2023-02-27T23:25:22.088Z,-1.80
2023-02-27T23:27:49.189Z,-1.80
2023-02-27T23:30:16.778Z,-1.80
2023-02-27T23:32:44.050Z,-1.80
2023-02-27T23:35:11.543Z,-1.80
2023-02-27T23:41:08.654Z,-1.80
2023-02-27T23:43:35.839Z,-1.80
2023-02-27T23:46:07.042Z,-1.80
2023-02-27T23:48:34.102Z,-1.90
2023-02-27T23:51:01.516Z,-1.90
2023-02-27T23:53:30.099Z,-1.90
2023-02-27T23:55:57.232Z,-1.90
2023-02-27T23:58:24.295Z,-1.90
